»·PEaware :: N4A KASE-KRKS

N4A :: KASE-KRKS

FLIGHT INFORMATION

Flight Status: Arrived
Operator: Privately registered:
United States
More flights under this callsign
Pilot: Alec D. (17934)
Aircraft: CESSNA 510 CITATION MUSTANG
(C510)
More flights by this aircraft type
Origin: KASE Aspen-Pitkin Co/Sardy
United States
Destination: KRKS Rock Springs-Sweetwater
United States
More flights between these airports :: More routes between these airports
Route: +LINDZ9 EKR OCS
File this flight plan on PilotEdge
Remarks:
Altitude:
(Current/Filed)
26,000ft
Speed:
(Current/Filed)
340kts
Departed: 13-Nov-18 12:33 PM
Arrived: 13-Nov-18 01:45 PM
Distance/Time
Traveled:
174nm/1:11
Distance/Time
To Go:
Arrived

Flight Plot

Page will automatically refresh every two minutes.

Flight plan parsing failed; only flown route is shown


Map Options




Map Legend


Flown Route
Filed Route
Departure Airport
Arrival Airport
Navaid (VOR, NDB)
Fix

Horizontal Profiles

Position Reports

Time Latitude Longitude Heading Altitude Ground
Speed
13-Nov-18 12:15 39.223030 -106.866786 68 7822ft 0kts
13-Nov-18 12:16 39.223030 -106.866786 68 7822ft 0kts
13-Nov-18 12:17 39.223030 -106.866786 68 7822ft 0kts
13-Nov-18 12:18 39.223030 -106.866786 68 7822ft 0kts
13-Nov-18 12:19 39.223030 -106.866786 68 7822ft 0kts
13-Nov-18 12:20 39.223030 -106.866786 68 7822ft 0kts
13-Nov-18 12:21 39.223030 -106.866786 68 7822ft 0kts
13-Nov-18 12:22 39.223030 -106.866786 68 7822ft 0kts
13-Nov-18 12:23 39.223030 -106.866785 68 7822ft 0kts
13-Nov-18 12:24 39.223030 -106.866784 68 7822ft 0kts
13-Nov-18 12:25 39.223030 -106.866783 68 7822ft 0kts
13-Nov-18 12:26 39.223031 -106.866783 68 7822ft 0kts
13-Nov-18 12:27 39.223031 -106.866782 68 7822ft 0kts
13-Nov-18 12:28 39.223031 -106.866781 68 7822ft 0kts
13-Nov-18 12:29 39.223031 -106.866781 68 7822ft 0kts
13-Nov-18 12:30 39.223031 -106.866780 68 7822ft 0kts
13-Nov-18 12:31 39.223036 -106.866728 107 7822ft 1kts
13-Nov-18 12:32 39.220507 -106.866855 158 7822ft 15kts
13-Nov-18 12:33 39.216278 -106.864833 158 7822ft 16kts
13-Nov-18 12:34 39.214534 -106.864122 225 7822ft 0kts
13-Nov-18 12:35 39.214531 -106.864126 225 7822ft 0kts
13-Nov-18 12:36 39.224376 -106.869404 341 7837ft 108kts
13-Nov-18 12:37 39.261078 -106.878630 348 9253ft 161kts
13-Nov-18 12:38 39.281028 -106.931086 283 11224ft 193kts
13-Nov-18 12:49 39.223054 -106.866712 69 7822ft 0kts
13-Nov-18 12:50 39.223054 -106.866712 69 7822ft 0kts
13-Nov-18 12:51 39.223054 -106.866712 69 7822ft 0kts
13-Nov-18 12:52 39.223054 -106.866712 69 7822ft 0kts
13-Nov-18 12:53 39.223054 -106.866712 69 7822ft 0kts
13-Nov-18 12:54 39.223054 -106.866712 69 7822ft 0kts
13-Nov-18 12:55 39.223054 -106.866712 69 7822ft 0kts
13-Nov-18 12:56 39.223054 -106.866712 69 7822ft 0kts
13-Nov-18 12:57 39.223054 -106.866712 69 7822ft 0kts
13-Nov-18 12:58 39.222686 -106.866913 209 7822ft 11kts
13-Nov-18 12:59 39.219803 -106.866500 159 7822ft 13kts
13-Nov-18 13:00 39.215557 -106.864492 157 7822ft 18kts
13-Nov-18 13:01 39.214412 -106.864441 266 7822ft 8kts
13-Nov-18 13:02 39.233264 -106.872578 350 8169ft 119kts
13-Nov-18 13:03 39.273122 -106.889695 301 9797ft 179kts
13-Nov-18 13:04 39.283481 -106.944458 283 11696ft 195kts
13-Nov-18 13:05 39.298347 -107.024794 305 14452ft 198kts
13-Nov-18 13:06 39.332786 -107.080495 318 16686ft 199kts
13-Nov-18 13:07 39.364688 -107.124714 320 18375ft 204kts
13-Nov-18 13:08 39.380434 -107.196791 268 20157ft 240kts
13-Nov-18 13:09 39.361888 -107.297252 264 22028ft 252kts
13-Nov-18 13:10 39.344477 -107.385693 265 23492ft 258kts
13-Nov-18 13:11 39.329579 -107.461787 265 24653ft 262kts
13-Nov-18 13:12 39.311357 -107.554319 266 25969ft 266kts
13-Nov-18 13:13 39.329423 -107.630346 333 26658ft 232kts
13-Nov-18 13:14 39.392824 -107.665017 345 26636ft 263kts
13-Nov-18 13:15 39.465894 -107.694678 346 26633ft 284kts
13-Nov-18 13:16 39.541907 -107.724795 346 26630ft 286kts
13-Nov-18 13:17 39.618572 -107.753902 346 26630ft 286kts
13-Nov-18 13:18 39.694926 -107.782882 346 26628ft 286kts
13-Nov-18 13:19 39.771230 -107.811892 346 26624ft 286kts
13-Nov-18 13:20 39.848117 -107.841199 346 26619ft 286kts
13-Nov-18 13:21 39.924583 -107.870213 346 26614ft 287kts
13-Nov-18 13:22 40.001172 -107.899465 346 26612ft 287kts
13-Nov-18 13:23 40.077773 -107.929887 341 26611ft 288kts
13-Nov-18 13:24 40.149114 -107.979017 335 26613ft 291kts
13-Nov-18 13:25 40.219845 -108.030468 335 26617ft 291kts
13-Nov-18 13:26 40.291319 -108.081322 335 26622ft 291kts
13-Nov-18 13:27 40.362548 -108.131658 335 26626ft 291kts
13-Nov-18 13:28 40.434350 -108.182360 335 26629ft 292kts
13-Nov-18 13:29 40.505888 -108.232965 335 26627ft 293kts
13-Nov-18 13:30 40.577501 -108.283742 335 26615ft 292kts
13-Nov-18 13:31 40.649483 -108.334889 335 26613ft 293kts
13-Nov-18 13:32 40.721332 -108.386082 335 25820ft 295kts
13-Nov-18 13:33 40.793385 -108.437557 334 24017ft 294kts
13-Nov-18 13:34 40.865668 -108.489291 334 22214ft 295kts
13-Nov-18 13:35 40.937746 -108.541042 333 20418ft 295kts
13-Nov-18 13:36 41.008712 -108.592179 333 18620ft 287kts
13-Nov-18 13:37 41.077842 -108.642077 333 16947ft 277kts
13-Nov-18 13:38 41.144785 -108.690480 332 15350ft 272kts
13-Nov-18 13:39 41.211320 -108.738600 332 13783ft 269kts
13-Nov-18 13:40 41.276666 -108.786082 332 12289ft 267kts
13-Nov-18 13:41 41.340681 -108.832769 331 12007ft 258kts
13-Nov-18 13:42 41.404479 -108.879310 332 12004ft 263kts
13-Nov-18 13:43 41.467558 -108.925130 330 10080ft 247kts
13-Nov-18 13:44 41.524525 -108.963741 334 8333ft 200kts
13-Nov-18 13:45 41.565063 -108.979606 338 7985ft 135kts
13-Nov-18 13:46 41.585657 -109.008239 277 7460ft 101kts
13-Nov-18 13:47 41.590966 -109.043899 278 6850ft 96kts
13-Nov-18 13:48 41.594186 -109.062460 281 6762ft 32kts
13-Nov-18 13:49 41.596335 -109.069403 9 6762ft 5kts
13-Nov-18 13:50 41.599017 -109.066814 44 6762ft 15kts
13-Nov-18 13:51 41.599991 -109.066179 313 6762ft 0kts

Navigation Log

Ident Type
Flight plan parsing failed, navigation log unavailable